createdAt,value
2019-05-01T00:03:24.083Z,7.70
2019-05-01T00:08:27.249Z,7.80
2019-05-01T00:10:57.559Z,7.80
2019-05-01T00:13:28.044Z,7.80
2019-05-01T00:15:58.599Z,7.80
2019-05-01T00:23:28.531Z,7.90
2019-05-01T00:25:58.853Z,8.00
2019-05-01T00:30:58.783Z,8.00
2019-05-01T00:35:58.786Z,7.90
2019-05-01T00:40:58.751Z,7.80
2019-05-01T00:43:29.190Z,7.70
2019-05-01T00:45:59.549Z,7.60
2019-05-01T00:50:59.519Z,7.40
2019-05-01T00:59:09.275Z,7.10
2019-05-01T01:01:56.994Z,7.00
2019-05-01T01:04:27.591Z,7.00
2019-05-01T01:06:57.938Z,6.90
2019-05-01T01:09:28.438Z,6.70
2019-05-01T01:14:28.366Z,6.50
2019-05-01T01:16:58.737Z,6.50
2019-05-01T01:21:58.729Z,6.40
2019-05-01T01:24:29.213Z,6.10
2019-05-01T01:26:59.738Z,6.10
2019-05-01T01:29:30.207Z,6.10
2019-05-01T01:34:30.294Z,6.30
2019-05-01T01:37:00.772Z,6.30
2019-05-01T01:39:31.848Z,6.20
2019-05-01T01:42:02.185Z,6.10
2019-05-01T01:44:57.744Z,6.40
2019-05-01T01:47:28.203Z,6.50
2019-05-01T01:49:59.443Z,6.30
2019-05-01T01:52:30.277Z,6.20
2019-05-01T01:57:30.636Z,6.20
2019-05-01T02:02:37.472Z,6.00
2019-05-01T02:10:41.834Z,6.00
2019-05-01T02:15:30.644Z,6.00
2019-05-01T02:18:01.039Z,5.90
2019-05-01T02:20:31.560Z,5.70
2019-05-01T02:25:33.374Z,5.60
2019-05-01T02:28:31.869Z,5.60
2019-05-01T02:33:51.541Z,6.00
2019-05-01T02:36:24.049Z,6.10
2019-05-01T02:38:57.080Z,6.00
2019-05-01T02:41:31.674Z,6.10
2019-05-01T02:46:36.431Z,6.30
2019-05-01T02:49:13.798Z,6.20
2019-05-01T02:51:45.369Z,6.20
2019-05-01T02:56:55.890Z,6.00
2019-05-01T02:59:28.632Z,5.80
2019-05-01T03:02:00.259Z,5.70
2019-05-01T03:04:31.296Z,5.70
2019-05-01T03:09:33.599Z,5.70
2019-05-01T03:12:04.986Z,5.90
2019-05-01T03:14:38.208Z,5.90
2019-05-01T03:17:29.910Z,5.80
2019-05-01T03:22:43.077Z,5.70
2019-05-01T03:25:13.426Z,5.70
2019-05-01T03:27:44.388Z,5.80
2019-05-01T03:30:14.824Z,5.70
2019-05-01T03:32:45.356Z,3.70
2019-05-01T03:35:16.012Z,5.50
2019-05-01T03:37:46.359Z,5.60
2019-05-01T03:42:46.416Z,5.80
2019-05-01T03:45:17.205Z,5.80
2019-05-01T03:47:47.534Z,5.70
2019-05-01T03:50:17.866Z,5.50
2019-05-01T03:52:48.509Z,5.50
2019-05-01T03:55:20.090Z,5.60
2019-05-01T04:00:27.619Z,5.70
2019-05-01T04:03:20.650Z,5.50
2019-05-01T04:05:51.300Z,5.20
2019-05-01T04:08:21.862Z,5.00
2019-05-01T04:10:52.537Z,4.90
2019-05-01T04:13:22.870Z,4.70
2019-05-01T04:15:55.182Z,4.70
2019-05-01T04:18:26.673Z,4.90
2019-05-01T04:20:57.416Z,5.10
2019-05-01T04:23:27.907Z,5.10
2019-05-01T04:28:52.128Z,4.90
2019-05-01T04:31:44.527Z,4.80
2019-05-01T04:34:21.801Z,4.80
2019-05-01T04:36:55.262Z,4.90
2019-05-01T04:39:25.787Z,5.00
2019-05-01T04:41:56.152Z,5.10
2019-05-01T04:44:26.618Z,5.20
2019-05-01T04:49:28.079Z,5.20
2019-05-01T04:51:58.923Z,5.20
2019-05-01T04:54:29.368Z,5.30
2019-05-01T04:56:59.799Z,5.40
2019-05-01T04:59:30.131Z,5.60
2019-05-01T05:02:03.403Z,5.80
2019-05-01T05:04:34.942Z,6.00
2019-05-01T05:07:05.764Z,6.10
2019-05-01T05:09:47.042Z,6.20
2019-05-01T05:12:32.327Z,6.40
2019-05-01T05:17:57.631Z,6.50
2019-05-01T05:22:58.935Z,7.00
2019-05-01T05:25:29.890Z,7.30
2019-05-01T05:28:01.299Z,7.50
2019-05-01T05:30:34.182Z,7.80
2019-05-01T05:35:40.063Z,8.40
2019-05-01T05:38:33.621Z,8.60
2019-05-01T05:41:04.478Z,8.90
2019-05-01T05:43:35.451Z,9.30
2019-05-01T05:46:06.124Z,9.50
2019-05-01T05:48:36.621Z,9.60
2019-05-01T05:53:50.324Z,10.20
2019-05-01T05:56:26.751Z,10.10
2019-05-01T05:59:04.681Z,10.30
2019-05-01T06:02:05.758Z,10.30
2019-05-01T06:05:04.837Z,10.00
2019-05-01T06:10:33.222Z,9.30
2019-05-01T06:21:41.039Z,10.60
2019-05-01T06:24:17.735Z,10.50
2019-05-01T06:26:48.211Z,10.30
2019-05-01T06:29:19.334Z,10.70
2019-05-01T06:31:53.833Z,10.50
2019-05-01T06:41:52.822Z,12.70
2019-05-01T06:47:25.953Z,12.20
2019-05-01T06:50:32.362Z,12.10
2019-05-01T06:53:04.667Z,12.10
2019-05-01T06:55:36.617Z,12.40
2019-05-01T06:58:07.268Z,12.50
2019-05-01T07:00:43.081Z,12.90
2019-05-01T07:03:12.434Z,13.30
2019-05-01T07:10:46.363Z,13.00
2019-05-01T07:15:46.311Z,12.80
2019-05-01T07:20:53.275Z,13.10
2019-05-01T07:23:24.129Z,13.40
2019-05-01T07:25:54.717Z,13.30
2019-05-01T07:33:40.083Z,14.40
2019-05-01T07:36:15.432Z,14.20
2019-05-01T07:38:44.404Z,14.30
2019-05-01T07:41:16.156Z,14.60
2019-05-01T07:46:40.099Z,14.50
2019-05-01T07:49:13.109Z,14.20
2019-05-01T07:51:50.783Z,14.50
2019-05-01T07:54:23.348Z,15.00
2019-05-01T07:56:54.154Z,15.20
2019-05-01T08:02:06.056Z,15.60
2019-05-01T08:07:07.195Z,16.80
2019-05-01T08:12:07.147Z,16.70
2019-05-01T08:14:37.525Z,16.90
2019-05-01T08:17:08.153Z,16.40
2019-05-01T08:19:52.539Z,16.40
2019-05-01T08:22:32.021Z,16.30
2019-05-01T08:25:05.554Z,16.70
2019-05-01T08:27:57.948Z,17.00
2019-05-01T08:30:47.928Z,17.60
2019-05-01T08:33:34.999Z,17.20
2019-05-01T08:36:06.773Z,17.40
2019-05-01T08:38:37.970Z,16.80
2019-05-01T08:41:08.317Z,16.20
2019-05-01T08:46:26.615Z,16.10
2019-05-01T08:51:42.925Z,15.70
2019-05-01T08:56:43.756Z,16.30
2019-05-01T08:59:19.291Z,16.50
2019-05-01T09:01:50.616Z,17.30
2019-05-01T09:06:49.271Z,18.80
2019-05-01T09:09:19.638Z,18.60
2019-05-01T09:11:49.989Z,17.80
2019-05-01T09:14:20.322Z,17.80
2019-05-01T09:16:52.472Z,18.20
2019-05-01T09:19:22.633Z,18.10
2019-05-01T09:21:52.989Z,19.20
2019-05-01T09:24:27.847Z,18.70
2019-05-01T09:32:21.619Z,19.70
2019-05-01T09:47:23.187Z,22.50
2019-05-01T09:52:38.639Z,24.60
2019-05-01T09:57:52.682Z,24.90
2019-05-01T10:00:28.700Z,23.10
2019-05-01T10:02:59.085Z,21.90
2019-05-01T10:05:29.440Z,21.70
2019-05-01T10:08:03.962Z,21.90
2019-05-01T10:10:31.940Z,20.80
2019-05-01T10:13:02.297Z,19.00
2019-05-01T10:15:32.643Z,19.70
2019-05-01T10:18:03.015Z,20.90
2019-05-01T10:23:02.973Z,20.80
2019-05-01T10:25:35.062Z,20.70
2019-05-01T10:28:12.946Z,21.40
2019-05-01T10:30:57.319Z,20.40
2019-05-01T10:36:18.796Z,20.20
2019-05-01T10:38:46.903Z,20.70
2019-05-01T10:41:17.513Z,20.30
2019-05-01T10:46:17.476Z,20.40
2019-05-01T10:51:17.438Z,19.60
2019-05-01T10:56:17.415Z,19.00
2019-05-01T11:01:39.405Z,18.90
2019-05-01T11:04:09.915Z,19.20
2019-05-01T11:06:40.297Z,18.80
2019-05-01T11:09:10.650Z,19.10
2019-05-01T11:11:42.403Z,18.60
2019-05-01T11:14:24.518Z,18.00
2019-05-01T11:16:54.972Z,17.80
2019-05-01T11:19:25.321Z,18.30
2019-05-01T11:21:55.675Z,19.30
2019-05-01T11:24:26.069Z,19.60
2019-05-01T11:29:26.046Z,20.60
2019-05-01T11:32:02.287Z,21.30
2019-05-01T11:34:47.556Z,20.10
2019-05-01T11:37:32.215Z,20.90
2019-05-01T11:40:07.813Z,21.90
2019-05-01T11:45:09.169Z,22.90
2019-05-01T11:50:09.109Z,24.80
2019-05-01T11:52:39.431Z,24.60
2019-05-01T11:55:10.017Z,25.00
2019-05-01T12:02:40.396Z,26.30
2019-05-01T12:05:10.768Z,26.30
2019-05-01T12:07:41.144Z,24.60
2019-05-01T12:12:41.245Z,23.50
2019-05-01T12:20:18.744Z,22.70
2019-05-01T12:22:51.379Z,21.80
2019-05-01T12:25:21.076Z,20.00
2019-05-01T12:27:51.445Z,19.50
2019-05-01T12:30:21.900Z,19.40
2019-05-01T12:32:52.261Z,19.00
2019-05-01T12:35:22.612Z,19.80
2019-05-01T12:37:55.487Z,19.60
2019-05-01T12:40:26.195Z,19.50
2019-05-01T12:42:56.562Z,20.80
2019-05-01T12:45:26.913Z,22.30
2019-05-01T12:47:59.561Z,21.70
2019-05-01T12:50:29.931Z,23.20
2019-05-01T12:53:25.452Z,22.90
2019-05-01T12:58:48.667Z,22.80
2019-05-01T13:03:49.688Z,22.80
2019-05-01T13:06:20.049Z,23.40
2019-05-01T13:16:19.609Z,21.70
2019-05-01T13:21:19.551Z,20.60
2019-05-01T13:23:49.986Z,19.40
2019-05-01T13:26:46.573Z,19.70
2019-05-01T13:29:27.705Z,19.60
2019-05-01T13:32:16.942Z,20.90
2019-05-01T13:34:47.411Z,20.20
2019-05-01T13:42:17.034Z,20.30
2019-05-01T13:44:47.352Z,20.50
2019-05-01T13:47:17.704Z,20.30
2019-05-01T13:49:48.029Z,19.80
2019-05-01T13:52:19.321Z,19.10
2019-05-01T13:57:20.531Z,18.70
2019-05-01T13:59:50.855Z,18.60
2019-05-01T14:02:21.224Z,17.90
2019-05-01T14:04:51.570Z,17.30
2019-05-01T14:09:51.515Z,17.20
2019-05-01T14:14:51.435Z,16.70
2019-05-01T14:20:01.408Z,16.70
2019-05-01T14:22:47.216Z,17.20
2019-05-01T14:25:17.593Z,16.90
2019-05-01T14:27:47.927Z,16.70
2019-05-01T14:30:18.386Z,16.50
2019-05-01T14:32:51.522Z,16.80
2019-05-01T14:42:49.704Z,16.60
2019-05-01T14:45:20.285Z,16.50
2019-05-01T14:47:50.724Z,16.40
2019-05-01T14:52:50.807Z,16.60
2019-05-01T14:55:21.196Z,16.30
2019-05-01T14:57:51.594Z,16.50
2019-05-01T15:00:22.329Z,16.80
2019-05-01T15:02:52.665Z,16.80
2019-05-01T15:05:23.009Z,16.10
2019-05-01T15:07:53.351Z,16.50
2019-05-01T15:10:23.773Z,16.20
2019-05-01T15:12:55.722Z,15.90
2019-05-01T15:15:41.289Z,16.10
2019-05-01T15:18:15.985Z,16.00
2019-05-01T15:20:46.563Z,15.60
2019-05-01T15:23:17.146Z,15.70
2019-05-01T15:35:48.676Z,16.00
2019-05-01T15:38:19.326Z,16.10
2019-05-01T15:46:19.122Z,15.30
2019-05-01T15:58:48.689Z,15.10
2019-05-01T16:03:49.003Z,14.60
2019-05-01T16:08:49.934Z,14.40
2019-05-01T16:14:08.903Z,14.70
2019-05-01T16:19:08.878Z,14.40
2019-05-01T16:21:39.266Z,14.50
2019-05-01T16:24:09.595Z,14.40
2019-05-01T16:26:39.979Z,14.10
2019-05-01T16:29:10.328Z,14.00
2019-05-01T16:31:40.725Z,13.90
2019-05-01T16:34:11.159Z,13.90
2019-05-01T16:36:41.546Z,14.00
2019-05-01T16:41:59.119Z,13.80
2019-05-01T16:44:29.509Z,13.70
2019-05-01T16:46:59.874Z,13.50
2019-05-01T16:49:30.239Z,13.30
2019-05-01T16:52:00.648Z,13.40
2019-05-01T16:54:30.979Z,13.40
2019-05-01T16:57:01.361Z,13.20
2019-05-01T17:02:14.604Z,13.10
2019-05-01T17:10:29.138Z,12.90
2019-05-01T17:15:34.605Z,12.60
2019-05-01T17:18:05.278Z,12.50
2019-05-01T17:20:35.703Z,12.50
2019-05-01T17:23:06.141Z,12.40
2019-05-01T17:30:50.433Z,12.30
2019-05-01T17:33:22.141Z,12.40
2019-05-01T17:38:22.191Z,12.50
2019-05-01T17:53:23.911Z,12.40
2019-05-01T17:58:23.873Z,12.40
2019-05-01T18:11:47.210Z,12.00
2019-05-01T18:16:47.726Z,11.80
2019-05-01T18:27:32.717Z,11.90
2019-05-01T18:30:07.001Z,11.80
2019-05-01T18:32:41.454Z,11.80
2019-05-01T18:40:38.291Z,11.90
2019-05-01T18:48:22.890Z,11.90
2019-05-01T18:50:54.913Z,11.80
2019-05-01T18:53:26.080Z,11.90
2019-05-01T18:55:56.523Z,11.90
2019-05-01T18:58:26.929Z,11.90
2019-05-01T19:03:28.595Z,11.80
2019-05-01T19:05:59.037Z,11.70
2019-05-01T19:08:29.674Z,11.70
2019-05-01T19:13:31.706Z,11.70
2019-05-01T19:16:03.458Z,11.70
2019-05-01T19:18:34.384Z,11.60
2019-05-01T19:21:05.034Z,11.60
2019-05-01T19:23:36.502Z,11.50
2019-05-01T19:26:07.472Z,11.50
2019-05-01T19:28:38.098Z,11.60
2019-05-01T19:33:38.137Z,11.50
2019-05-01T19:36:10.205Z,11.40
2019-05-01T19:43:42.203Z,11.30
2019-05-01T19:46:12.787Z,11.20
2019-05-01T19:48:45.324Z,11.30
2019-05-01T19:53:46.457Z,11.30
2019-05-01T19:58:48.072Z,11.20
2019-05-01T20:01:18.638Z,11.30
2019-05-01T20:03:49.026Z,11.20
2019-05-01T20:06:20.388Z,11.30
2019-05-01T20:08:50.760Z,11.30
2019-05-01T20:11:21.175Z,11.30
2019-05-01T20:13:51.562Z,11.30
2019-05-01T20:16:22.757Z,11.30
2019-05-01T20:18:53.122Z,11.30
2019-05-01T20:23:53.180Z,11.40
2019-05-01T20:26:26.853Z,11.30
2019-05-01T20:28:57.467Z,11.30
2019-05-01T20:31:28.282Z,11.30
2019-05-01T20:33:59.555Z,11.40
2019-05-01T20:36:30.061Z,11.30
2019-05-01T20:39:00.454Z,11.40
2019-05-01T20:44:00.399Z,11.40
2019-05-01T20:46:30.798Z,11.40
2019-05-01T20:49:06.296Z,11.40
2019-05-01T20:54:02.764Z,11.50
2019-05-01T20:59:07.969Z,11.60
2019-05-01T21:01:38.349Z,11.50
2019-05-01T21:07:15.608Z,11.60
2019-05-01T21:09:47.771Z,11.60
2019-05-01T21:12:20.040Z,11.70
2019-05-01T21:14:51.085Z,11.70
2019-05-01T21:17:21.665Z,11.70
2019-05-01T21:19:52.066Z,11.70
2019-05-01T21:24:53.873Z,11.80
2019-05-01T21:27:24.403Z,11.70
2019-05-01T21:29:54.882Z,11.70
2019-05-01T21:32:27.455Z,11.80
2019-05-01T21:34:57.253Z,11.80
2019-05-01T21:37:27.591Z,11.80
2019-05-01T21:39:57.961Z,11.80
2019-05-01T21:42:28.332Z,11.80
2019-05-01T21:44:58.697Z,11.80
2019-05-01T21:47:29.046Z,11.80
2019-05-01T21:49:59.446Z,11.80
2019-05-01T21:52:29.807Z,11.80
2019-05-01T21:55:00.274Z,11.80
2019-05-01T21:57:33.185Z,11.70
2019-05-01T22:00:02.601Z,11.70
2019-05-01T22:02:32.934Z,11.70
2019-05-01T22:05:04.000Z,11.60
2019-05-01T22:10:05.507Z,11.50
2019-05-01T22:15:12.782Z,11.60
2019-05-01T22:18:00.308Z,11.50
2019-05-01T22:20:41.155Z,11.50
2019-05-01T22:23:17.108Z,11.50
2019-05-01T22:36:33.116Z,11.40
2019-05-01T22:41:34.706Z,11.50
2019-05-01T22:44:05.222Z,11.50
2019-05-01T22:51:36.526Z,11.70
2019-05-01T22:56:36.514Z,11.80
2019-05-01T23:01:36.673Z,11.80
2019-05-01T23:06:41.723Z,11.80
2019-05-01T23:09:12.968Z,11.80
2019-05-01T23:11:46.274Z,11.80
2019-05-01T23:16:54.605Z,11.80
2019-05-01T23:19:27.829Z,11.70
2019-05-01T23:21:58.348Z,11.80
2019-05-01T23:24:28.933Z,11.70
2019-05-01T23:29:28.873Z,11.70
2019-05-01T23:31:59.537Z,11.70
2019-05-01T23:34:29.907Z,11.60
2019-05-01T23:37:00.231Z,11.60
2019-05-01T23:39:39.759Z,11.50
2019-05-01T23:42:02.615Z,11.40
2019-05-01T23:44:32.987Z,11.40
2019-05-01T23:47:03.411Z,11.30
2019-05-01T23:49:33.724Z,11.30
2019-05-01T23:52:05.220Z,11.40
2019-05-01T23:57:05.272Z,11.50
